sensor_id;sensor_type;location;lat;lon;timestamp;P1;durP1;ratioP1;P2;durP2;ratioP2
11037;SDS011;5572;49.540;11.932;2023-09-30T00:01:50;22.27;;;21.17;;
11037;SDS011;5572;49.540;11.932;2023-09-30T00:04:18;22.07;;;20.97;;
11037;SDS011;5572;49.540;11.932;2023-09-30T00:06:46;22.30;;;21.20;;
11037;SDS011;5572;49.540;11.932;2023-09-30T00:09:16;21.47;;;20.37;;
11037;SDS011;5572;49.540;11.932;2023-09-30T00:11:44;21.50;;;20.47;;
11037;SDS011;5572;49.540;11.932;2023-09-30T00:14:12;22.07;;;20.97;;
11037;SDS011;5572;49.540;11.932;2023-09-30T00:16:42;22.87;;;21.77;;
11037;SDS011;5572;49.540;11.932;2023-09-30T00:19:10;22.57;;;21.47;;
11037;SDS011;5572;49.540;11.932;2023-09-30T00:21:39;21.27;;;20.27;;
11037;SDS011;5572;49.540;11.932;2023-09-30T00:24:07;22.20;;;21.10;;
11037;SDS011;5572;49.540;11.932;2023-09-30T00:26:36;21.07;;;20.07;;
11037;SDS011;5572;49.540;11.932;2023-09-30T00:29:04;21.80;;;20.73;;
11037;SDS011;5572;49.540;11.932;2023-09-30T00:31:32;22.47;;;21.37;;
11037;SDS011;5572;49.540;11.932;2023-09-30T00:34:00;22.90;;;21.70;;
11037;SDS011;5572;49.540;11.932;2023-09-30T00:36:28;24.37;;;22.87;;
11037;SDS011;5572;49.540;11.932;2023-09-30T00:38:57;21.07;;;20.07;;
11037;SDS011;5572;49.540;11.932;2023-09-30T00:41:25;24.10;;;22.70;;
11037;SDS011;5572;49.540;11.932;2023-09-30T00:43:54;27.87;;;22.77;;
11037;SDS011;5572;49.540;11.932;2023-09-30T00:46:25;21.63;;;20.57;;
11037;SDS011;5572;49.540;11.932;2023-09-30T00:48:57;23.17;;;22.07;;
11037;SDS011;5572;49.540;11.932;2023-09-30T00:51:26;22.13;;;21.03;;
11037;SDS011;5572;49.540;11.932;2023-09-30T00:53:55;28.03;;;26.50;;
11037;SDS011;5572;49.540;11.932;2023-09-30T00:56:26;22.60;;;20.87;;
11037;SDS011;5572;49.540;11.932;2023-09-30T00:58:58;21.67;;;20.57;;
11037;SDS011;5572;49.540;11.932;2023-09-30T01:01:26;21.47;;;20.47;;
11037;SDS011;5572;49.540;11.932;2023-09-30T01:03:54;22.80;;;21.67;;
11037;SDS011;5572;49.540;11.932;2023-09-30T01:06:24;22.70;;;21.43;;
11037;SDS011;5572;49.540;11.932;2023-09-30T06:21:55;18.27;;;17.37;;
11037;SDS011;5572;49.540;11.932;2023-09-30T06:24:23;21.87;;;20.63;;
11037;SDS011;5572;49.540;11.932;2023-09-30T06:26:50;18.63;;;17.73;;
11037;SDS011;5572;49.540;11.932;2023-09-30T06:29:18;19.33;;;18.33;;
11037;SDS011;5572;49.540;11.932;2023-09-30T06:31:46;18.73;;;17.83;;
11037;SDS011;5572;49.540;11.932;2023-09-30T06:34:14;19.13;;;18.23;;
11037;SDS011;5572;49.540;11.932;2023-09-30T06:36:43;20.20;;;19.20;;
11037;SDS011;5572;49.540;11.932;2023-09-30T06:39:12;18.33;;;17.47;;
11037;SDS011;5572;49.540;11.932;2023-09-30T06:41:41;20.03;;;19.10;;
11037;SDS011;5572;49.540;11.932;2023-09-30T06:44:09;19.80;;;18.90;;
11037;SDS011;5572;49.540;11.932;2023-09-30T06:46:38;19.87;;;18.97;;
11037;SDS011;5572;49.540;11.932;2023-09-30T06:49:06;20.43;;;19.43;;
11037;SDS011;5572;49.540;11.932;2023-09-30T06:51:36;21.13;;;20.13;;
11037;SDS011;5572;49.540;11.932;2023-09-30T06:54:04;19.23;;;18.30;;
11037;SDS011;5572;49.540;11.932;2023-09-30T06:56:34;18.27;;;17.40;;
11037;SDS011;5572;49.540;11.932;2023-09-30T06:59:02;19.47;;;18.57;;
11037;SDS011;5572;49.540;11.932;2023-09-30T07:01:31;19.03;;;18.13;;
11037;SDS011;5572;49.540;11.932;2023-09-30T07:06:45;40.87;;;31.63;;
11037;SDS011;5572;49.540;11.932;2023-09-30T07:24:45;23.27;;;21.97;;
11037;SDS011;5572;49.540;11.932;2023-09-30T07:27:12;23.47;;;22.17;;
11037;SDS011;5572;49.540;11.932;2023-09-30T08:05:53;31.20;;;29.07;;
11037;SDS011;5572;49.540;11.932;2023-09-30T08:08:20;21.90;;;20.80;;
11037;SDS011;5572;49.540;11.932;2023-09-30T08:10:47;22.53;;;21.43;;
11037;SDS011;5572;49.540;11.932;2023-09-30T08:13:14;22.47;;;21.27;;
11037;SDS011;5572;49.540;11.932;2023-09-30T08:15:42;26.27;;;24.73;;
11037;SDS011;5572;49.540;11.932;2023-09-30T08:18:09;29.70;;;27.67;;
11037;SDS011;5572;49.540;11.932;2023-09-30T08:20:35;26.23;;;24.67;;
11037;SDS011;5572;49.540;11.932;2023-09-30T08:23:04;24.33;;;22.93;;
11037;SDS011;5572;49.540;11.932;2023-09-30T08:25:30;25.27;;;23.80;;
11037;SDS011;5572;49.540;11.932;2023-09-30T08:27:57;23.43;;;22.13;;
11037;SDS011;5572;49.540;11.932;2023-09-30T08:30:23;22.97;;;21.67;;
11037;SDS011;5572;49.540;11.932;2023-09-30T08:32:51;23.37;;;22.07;;
11037;SDS011;5572;49.540;11.932;2023-09-30T08:35:17;25.13;;;23.70;;
11037;SDS011;5572;49.540;11.932;2023-09-30T08:37:44;26.17;;;24.63;;
11037;SDS011;5572;49.540;11.932;2023-09-30T08:40:12;27.30;;;25.63;;
11037;SDS011;5572;49.540;11.932;2023-09-30T08:42:39;24.13;;;22.83;;
11037;SDS011;5572;49.540;11.932;2023-09-30T08:45:07;23.43;;;22.23;;
11037;SDS011;5572;49.540;11.932;2023-09-30T08:47:36;24.37;;;22.97;;
11037;SDS011;5572;49.540;11.932;2023-09-30T08:50:03;25.57;;;24.07;;
11037;SDS011;5572;49.540;11.932;2023-09-30T08:52:35;25.73;;;24.23;;
11037;SDS011;5572;49.540;11.932;2023-09-30T08:55:04;24.20;;;22.90;;
11037;SDS011;5572;49.540;11.932;2023-09-30T08:57:33;25.37;;;23.87;;
11037;SDS011;5572;49.540;11.932;2023-09-30T09:00:04;24.63;;;23.17;;
11037;SDS011;5572;49.540;11.932;2023-09-30T09:02:33;24.73;;;23.27;;
11037;SDS011;5572;49.540;11.932;2023-09-30T09:05:01;22.47;;;21.37;;
11037;SDS011;5572;49.540;11.932;2023-09-30T09:07:28;25.67;;;24.17;;
11037;SDS011;5572;49.540;11.932;2023-09-30T09:10:05;26.47;;;24.87;;
11037;SDS011;5572;49.540;11.932;2023-09-30T09:12:34;24.13;;;22.83;;
11037;SDS011;5572;49.540;11.932;2023-09-30T09:15:02;24.77;;;23.37;;
11037;SDS011;5572;49.540;11.932;2023-09-30T09:17:41;25.00;;;23.50;;
11037;SDS011;5572;49.540;11.932;2023-09-30T09:20:09;25.00;;;23.57;;
11037;SDS011;5572;49.540;11.932;2023-09-30T09:22:38;25.83;;;24.23;;
11037;SDS011;5572;49.540;11.932;2023-09-30T09:25:05;25.60;;;24.10;;
11037;SDS011;5572;49.540;11.932;2023-09-30T09:27:34;27.40;;;25.67;;
11037;SDS011;5572;49.540;11.932;2023-09-30T09:30:14;26.33;;;24.73;;
11037;SDS011;5572;49.540;11.932;2023-09-30T09:32:51;26.47;;;24.83;;
11037;SDS011;5572;49.540;11.932;2023-09-30T09:35:19;27.20;;;25.57;;
11037;SDS011;5572;49.540;11.932;2023-09-30T09:37:53;27.53;;;25.73;;
11037;SDS011;5572;49.540;11.932;2023-09-30T09:40:23;27.87;;;26.13;;
11037;SDS011;5572;49.540;11.932;2023-09-30T09:42:53;26.67;;;25.07;;
11037;SDS011;5572;49.540;11.932;2023-09-30T09:45:21;26.57;;;24.97;;
11037;SDS011;5572;49.540;11.932;2023-09-30T09:47:49;26.13;;;24.60;;
11037;SDS011;5572;49.540;11.932;2023-09-30T09:50:17;26.90;;;25.20;;
11037;SDS011;5572;49.540;11.932;2023-09-30T09:52:44;26.23;;;24.67;;
11037;SDS011;5572;49.540;11.932;2023-09-30T09:55:15;26.77;;;25.17;;
11037;SDS011;5572;49.540;11.932;2023-09-30T09:57:42;28.47;;;26.67;;
11037;SDS011;5572;49.540;11.932;2023-09-30T10:00:12;28.13;;;26.33;;
11037;SDS011;5572;49.540;11.932;2023-09-30T10:02:40;27.03;;;25.43;;
11037;SDS011;5572;49.540;11.932;2023-09-30T10:05:07;24.37;;;23.07;;
11037;SDS011;5572;49.540;11.932;2023-09-30T10:07:37;26.33;;;24.83;;
11037;SDS011;5572;49.540;11.932;2023-09-30T10:10:10;25.57;;;24.17;;
11037;SDS011;5572;49.540;11.932;2023-09-30T10:12:40;26.83;;;25.23;;
11037;SDS011;5572;49.540;11.932;2023-09-30T10:18:07;25.90;;;24.40;;
11037;SDS011;5572;49.540;11.932;2023-09-30T10:20:36;25.13;;;23.70;;
11037;SDS011;5572;49.540;11.932;2023-09-30T10:25:51;32.57;;;30.40;;
11037;SDS011;5572;49.540;11.932;2023-09-30T10:28:32;24.93;;;23.63;;
11037;SDS011;5572;49.540;11.932;2023-09-30T10:31:13;25.47;;;23.97;;
11037;SDS011;5572;49.540;11.932;2023-09-30T10:36:45;27.07;;;25.50;;
11037;SDS011;5572;49.540;11.932;2023-09-30T10:39:13;24.87;;;23.47;;
11037;SDS011;5572;49.540;11.932;2023-09-30T10:41:48;25.67;;;24.20;;
11037;SDS011;5572;49.540;11.932;2023-09-30T10:44:34;27.57;;;25.97;;
11037;SDS011;5572;49.540;11.932;2023-09-30T10:50:03;26.93;;;25.33;;
11037;SDS011;5572;49.540;11.932;2023-09-30T10:53:07;25.77;;;24.27;;
11037;SDS011;5572;49.540;11.932;2023-09-30T10:55:35;25.87;;;24.37;;
11037;SDS011;5572;49.540;11.932;2023-09-30T10:58:02;25.83;;;24.33;;
11037;SDS011;5572;49.540;11.932;2023-09-30T11:00:29;26.77;;;25.23;;
11037;SDS011;5572;49.540;11.932;2023-09-30T11:02:57;28.80;;;27.10;;
11037;SDS011;5572;49.540;11.932;2023-09-30T11:05:23;28.03;;;26.27;;
11037;SDS011;5572;49.540;11.932;2023-09-30T11:07:50;26.57;;;25.00;;
11037;SDS011;5572;49.540;11.932;2023-09-30T11:10:19;25.97;;;24.40;;
11037;SDS011;5572;49.540;11.932;2023-09-30T11:12:54;26.23;;;24.73;;
11037;SDS011;5572;49.540;11.932;2023-09-30T11:15:21;25.30;;;23.80;;
11037;SDS011;5572;49.540;11.932;2023-09-30T11:17:48;27.60;;;26.00;;
11037;SDS011;5572;49.540;11.932;2023-09-30T11:20:17;25.03;;;23.63;;
11037;SDS011;5572;49.540;11.932;2023-09-30T11:22:44;26.93;;;25.43;;
11037;SDS011;5572;49.540;11.932;2023-09-30T11:25:15;27.07;;;25.57;;
11037;SDS011;5572;49.540;11.932;2023-09-30T11:27:43;28.37;;;26.77;;
11037;SDS011;5572;49.540;11.932;2023-09-30T11:30:10;27.90;;;26.33;;
11037;SDS011;5572;49.540;11.932;2023-09-30T11:32:38;28.93;;;27.20;;
11037;SDS011;5572;49.540;11.932;2023-09-30T11:35:08;26.33;;;24.83;;
11037;SDS011;5572;49.540;11.932;2023-09-30T11:37:36;27.40;;;25.90;;
11037;SDS011;5572;49.540;11.932;2023-09-30T11:40:13;25.80;;;24.40;;
11037;SDS011;5572;49.540;11.932;2023-09-30T11:42:40;25.53;;;24.10;;
11037;SDS011;5572;49.540;11.932;2023-09-30T11:45:18;27.70;;;26.17;;
11037;SDS011;5572;49.540;11.932;2023-09-30T11:47:46;26.67;;;25.17;;
11037;SDS011;5572;49.540;11.932;2023-09-30T11:50:13;28.87;;;27.27;;
11037;SDS011;5572;49.540;11.932;2023-09-30T11:52:45;26.33;;;24.90;;
11037;SDS011;5572;49.540;11.932;2023-09-30T11:55:12;26.63;;;25.13;;
11037;SDS011;5572;49.540;11.932;2023-09-30T11:57:41;27.73;;;26.13;;
11037;SDS011;5572;49.540;11.932;2023-09-30T12:00:08;25.97;;;24.47;;
11037;SDS011;5572;49.540;11.932;2023-09-30T12:02:38;27.77;;;26.17;;
11037;SDS011;5572;49.540;11.932;2023-09-30T12:05:05;27.90;;;26.30;;
11037;SDS011;5572;49.540;11.932;2023-09-30T12:07:36;27.50;;;25.90;;
11037;SDS011;5572;49.540;11.932;2023-09-30T12:10:05;27.30;;;25.67;;
11037;SDS011;5572;49.540;11.932;2023-09-30T12:12:32;26.87;;;25.37;;
11037;SDS011;5572;49.540;11.932;2023-09-30T12:14:58;26.67;;;25.17;;
11037;SDS011;5572;49.540;11.932;2023-09-30T12:17:25;28.80;;;27.10;;
11037;SDS011;5572;49.540;11.932;2023-09-30T12:19:52;28.20;;;26.57;;
11037;SDS011;5572;49.540;11.932;2023-09-30T12:22:18;28.10;;;26.40;;
11037;SDS011;5572;49.540;11.932;2023-09-30T12:24:45;26.23;;;24.93;;
11037;SDS011;5572;49.540;11.932;2023-09-30T12:27:14;28.10;;;26.50;;
11037;SDS011;5572;49.540;11.932;2023-09-30T12:29:42;28.30;;;26.60;;
11037;SDS011;5572;49.540;11.932;2023-09-30T12:32:09;27.23;;;25.70;;
11037;SDS011;5572;49.540;11.932;2023-09-30T12:34:35;28.70;;;27.00;;
11037;SDS011;5572;49.540;11.932;2023-09-30T12:37:02;28.17;;;26.60;;
11037;SDS011;5572;49.540;11.932;2023-09-30T12:39:28;27.73;;;26.10;;
11037;SDS011;5572;49.540;11.932;2023-09-30T12:41:58;30.73;;;28.33;;
11037;SDS011;5572;49.540;11.932;2023-09-30T12:44:26;26.87;;;25.03;;
11037;SDS011;5572;49.540;11.932;2023-09-30T12:46:52;29.47;;;27.67;;
11037;SDS011;5572;49.540;11.932;2023-09-30T12:49:20;27.03;;;25.43;;
11037;SDS011;5572;49.540;11.932;2023-09-30T12:51:46;26.67;;;25.17;;
11037;SDS011;5572;49.540;11.932;2023-09-30T12:54:13;27.70;;;26.07;;
11037;SDS011;5572;49.540;11.932;2023-09-30T12:56:43;25.60;;;24.13;;
11037;SDS011;5572;49.540;11.932;2023-09-30T12:59:09;28.47;;;26.77;;
11037;SDS011;5572;49.540;11.932;2023-09-30T13:01:38;27.63;;;25.93;;
11037;SDS011;5572;49.540;11.932;2023-09-30T13:04:05;28.77;;;27.07;;
11037;SDS011;5572;49.540;11.932;2023-09-30T13:06:33;28.43;;;26.70;;
11037;SDS011;5572;49.540;11.932;2023-09-30T13:09:00;28.93;;;27.23;;
11037;SDS011;5572;49.540;11.932;2023-09-30T13:11:28;29.97;;;28.07;;
11037;SDS011;5572;49.540;11.932;2023-09-30T13:13:55;28.63;;;26.93;;
11037;SDS011;5572;49.540;11.932;2023-09-30T13:16:22;26.27;;;24.83;;
11037;SDS011;5572;49.540;11.932;2023-09-30T13:18:51;28.03;;;26.43;;
11037;SDS011;5572;49.540;11.932;2023-09-30T13:21:17;25.47;;;23.97;;
11037;SDS011;5572;49.540;11.932;2023-09-30T13:23:44;26.90;;;25.20;;
11037;SDS011;5572;49.540;11.932;2023-09-30T13:26:11;27.90;;;26.10;;
11037;SDS011;5572;49.540;11.932;2023-09-30T13:28:38;28.17;;;26.50;;
11037;SDS011;5572;49.540;11.932;2023-09-30T13:31:05;27.30;;;25.70;;
11037;SDS011;5572;49.540;11.932;2023-09-30T13:33:32;26.50;;;25.00;;
11037;SDS011;5572;49.540;11.932;2023-09-30T13:36:00;30.67;;;28.77;;
11037;SDS011;5572;49.540;11.932;2023-09-30T13:38:27;28.27;;;26.57;;
11037;SDS011;5572;49.540;11.932;2023-09-30T13:40:54;29.80;;;28.00;;
11037;SDS011;5572;49.540;11.932;2023-09-30T13:43:21;29.53;;;27.63;;
11037;SDS011;5572;49.540;11.932;2023-09-30T13:45:48;35.23;;;32.87;;
11037;SDS011;5572;49.540;11.932;2023-09-30T13:48:15;28.97;;;27.23;;
11037;SDS011;5572;49.540;11.932;2023-09-30T13:50:42;28.03;;;26.03;;
11037;SDS011;5572;49.540;11.932;2023-09-30T13:53:10;25.53;;;24.13;;
11037;SDS011;5572;49.540;11.932;2023-09-30T13:55:37;27.53;;;25.93;;
11037;SDS011;5572;49.540;11.932;2023-09-30T13:58:04;26.13;;;24.63;;
11037;SDS011;5572;49.540;11.932;2023-09-30T14:00:31;26.87;;;25.23;;
11037;SDS011;5572;49.540;11.932;2023-09-30T14:02:59;26.77;;;25.23;;
11037;SDS011;5572;49.540;11.932;2023-09-30T14:05:25;27.30;;;25.77;;
11037;SDS011;5572;49.540;11.932;2023-09-30T14:07:52;25.37;;;23.97;;
11037;SDS011;5572;49.540;11.932;2023-09-30T14:10:20;27.70;;;26.07;;
11037;SDS011;5572;49.540;11.932;2023-09-30T14:12:47;26.20;;;24.70;;
11037;SDS011;5572;49.540;11.932;2023-09-30T14:15:13;26.90;;;25.30;;
11037;SDS011;5572;49.540;11.932;2023-09-30T14:17:40;27.17;;;25.57;;
11037;SDS011;5572;49.540;11.932;2023-09-30T14:20:07;24.80;;;23.40;;
11037;SDS011;5572;49.540;11.932;2023-09-30T14:22:35;25.80;;;24.40;;
11037;SDS011;5572;49.540;11.932;2023-09-30T14:25:02;25.13;;;23.73;;
11037;SDS011;5572;49.540;11.932;2023-09-30T14:27:30;24.93;;;23.53;;
11037;SDS011;5572;49.540;11.932;2023-09-30T18:44:45;24.07;;;22.70;;
11037;SDS011;5572;49.540;11.932;2023-09-30T18:47:13;25.20;;;23.67;;
11037;SDS011;5572;49.540;11.932;2023-09-30T18:49:41;23.00;;;21.70;;
11037;SDS011;5572;49.540;11.932;2023-09-30T18:52:08;22.77;;;21.47;;
11037;SDS011;5572;49.540;11.932;2023-09-30T18:54:36;22.53;;;21.23;;
11037;SDS011;5572;49.540;11.932;2023-09-30T18:57:03;23.20;;;21.90;;
11037;SDS011;5572;49.540;11.932;2023-09-30T20:22:30;21.60;;;20.50;;
11037;SDS011;5572;49.540;11.932;2023-09-30T20:24:56;21.77;;;20.63;;
11037;SDS011;5572;49.540;11.932;2023-09-30T20:27:26;21.23;;;20.03;;
11037;SDS011;5572;49.540;11.932;2023-09-30T20:29:53;22.43;;;21.23;;
11037;SDS011;5572;49.540;11.932;2023-09-30T20:32:19;21.80;;;20.60;;
11037;SDS011;5572;49.540;11.932;2023-09-30T20:34:46;21.87;;;20.77;;
11037;SDS011;5572;49.540;11.932;2023-09-30T20:37:12;21.83;;;20.73;;
11037;SDS011;5572;49.540;11.932;2023-09-30T20:39:40;21.73;;;20.63;;
11037;SDS011;5572;49.540;11.932;2023-09-30T20:42:07;21.20;;;20.10;;
11037;SDS011;5572;49.540;11.932;2023-09-30T20:44:35;21.13;;;20.03;;
11037;SDS011;5572;49.540;11.932;2023-09-30T20:47:02;22.13;;;21.00;;
11037;SDS011;5572;49.540;11.932;2023-09-30T20:49:28;21.43;;;20.33;;
11037;SDS011;5572;49.540;11.932;2023-09-30T20:51:55;21.67;;;20.53;;
11037;SDS011;5572;49.540;11.932;2023-09-30T20:54:22;22.63;;;21.43;;
11037;SDS011;5572;49.540;11.932;2023-09-30T20:56:50;21.00;;;19.90;;
11037;SDS011;5572;49.540;11.932;2023-09-30T20:59:19;20.77;;;19.77;;
11037;SDS011;5572;49.540;11.932;2023-09-30T21:01:47;21.40;;;20.30;;
11037;SDS011;5572;49.540;11.932;2023-09-30T21:04:14;21.50;;;20.40;;
11037;SDS011;5572;49.540;11.932;2023-09-30T21:06:41;21.47;;;20.37;;
11037;SDS011;5572;49.540;11.932;2023-09-30T21:09:09;21.20;;;20.10;;
11037;SDS011;5572;49.540;11.932;2023-09-30T21:11:37;20.80;;;19.70;;
11037;SDS011;5572;49.540;11.932;2023-09-30T21:14:05;22.60;;;21.40;;
11037;SDS011;5572;49.540;11.932;2023-09-30T21:16:32;21.50;;;20.40;;
11037;SDS011;5572;49.540;11.932;2023-09-30T21:19:01;22.60;;;21.40;;
11037;SDS011;5572;49.540;11.932;2023-09-30T21:21:28;21.73;;;20.63;;
11037;SDS011;5572;49.540;11.932;2023-09-30T21:23:55;21.33;;;20.23;;
11037;SDS011;5572;49.540;11.932;2023-09-30T21:26:21;22.53;;;21.33;;
11037;SDS011;5572;49.540;11.932;2023-09-30T21:28:48;20.53;;;19.53;;
11037;SDS011;5572;49.540;11.932;2023-09-30T21:31:16;22.93;;;21.73;;
11037;SDS011;5572;49.540;11.932;2023-09-30T21:33:43;22.50;;;21.30;;
11037;SDS011;5572;49.540;11.932;2023-09-30T21:36:12;21.67;;;20.57;;
11037;SDS011;5572;49.540;11.932;2023-09-30T21:38:38;21.03;;;20.03;;
11037;SDS011;5572;49.540;11.932;2023-09-30T21:41:10;22.63;;;21.43;;
11037;SDS011;5572;49.540;11.932;2023-09-30T21:43:37;21.03;;;19.93;;
11037;SDS011;5572;49.540;11.932;2023-09-30T21:46:03;24.00;;;22.67;;
11037;SDS011;5572;49.540;11.932;2023-09-30T21:48:32;21.60;;;20.50;;
11037;SDS011;5572;49.540;11.932;2023-09-30T21:50:59;21.33;;;20.23;;
11037;SDS011;5572;49.540;11.932;2023-09-30T21:53:25;21.10;;;20.07;;
11037;SDS011;5572;49.540;11.932;2023-09-30T21:55:52;23.67;;;22.27;;
11037;SDS011;5572;49.540;11.932;2023-09-30T21:58:19;20.70;;;19.63;;
11037;SDS011;5572;49.540;11.932;2023-09-30T22:00:46;20.63;;;19.63;;
11037;SDS011;5572;49.540;11.932;2023-09-30T22:03:14;22.43;;;21.23;;
11037;SDS011;5572;49.540;11.932;2023-09-30T22:05:44;23.57;;;22.27;;
11037;SDS011;5572;49.540;11.932;2023-09-30T22:08:15;22.53;;;21.33;;
11037;SDS011;5572;49.540;11.932;2023-09-30T22:10:42;22.10;;;21.00;;
11037;SDS011;5572;49.540;11.932;2023-09-30T22:13:09;22.87;;;21.67;;
11037;SDS011;5572;49.540;11.932;2023-09-30T22:15:36;21.67;;;20.57;;
11037;SDS011;5572;49.540;11.932;2023-09-30T22:18:03;21.60;;;20.50;;
11037;SDS011;5572;49.540;11.932;2023-09-30T22:20:30;21.93;;;20.83;;
11037;SDS011;5572;49.540;11.932;2023-09-30T22:22:58;21.30;;;20.20;;
11037;SDS011;5572;49.540;11.932;2023-09-30T22:25:25;22.17;;;21.07;;
11037;SDS011;5572;49.540;11.932;2023-09-30T22:27:52;21.43;;;20.33;;
11037;SDS011;5572;49.540;11.932;2023-09-30T22:30:19;22.30;;;21.13;;
11037;SDS011;5572;49.540;11.932;2023-09-30T22:32:47;22.10;;;21.00;;
11037;SDS011;5572;49.540;11.932;2023-09-30T22:35:13;22.30;;;21.17;;
11037;SDS011;5572;49.540;11.932;2023-09-30T22:37:43;21.83;;;20.73;;
11037;SDS011;5572;49.540;11.932;2023-09-30T22:40:11;21.97;;;20.87;;
11037;SDS011;5572;49.540;11.932;2023-09-30T22:42:38;22.13;;;21.03;;
11037;SDS011;5572;49.540;11.932;2023-09-30T22:45:05;22.23;;;21.13;;
11037;SDS011;5572;49.540;11.932;2023-09-30T22:47:40;22.03;;;20.93;;
11037;SDS011;5572;49.540;11.932;2023-09-30T22:50:09;21.70;;;20.60;;
11037;SDS011;5572;49.540;11.932;2023-09-30T22:52:37;22.13;;;21.03;;
11037;SDS011;5572;49.540;11.932;2023-09-30T22:55:03;21.50;;;20.40;;
11037;SDS011;5572;49.540;11.932;2023-09-30T22:57:32;21.30;;;20.20;;
11037;SDS011;5572;49.540;11.932;2023-09-30T22:59:58;22.27;;;21.17;;
11037;SDS011;5572;49.540;11.932;2023-09-30T23:02:31;19.93;;;18.97;;
11037;SDS011;5572;49.540;11.932;2023-09-30T23:04:58;20.73;;;19.73;;
11037;SDS011;5572;49.540;11.932;2023-09-30T23:07:25;21.73;;;20.63;;
11037;SDS011;5572;49.540;11.932;2023-09-30T23:09:51;20.97;;;19.97;;
11037;SDS011;5572;49.540;11.932;2023-09-30T23:12:18;22.73;;;21.53;;
11037;SDS011;5572;49.540;11.932;2023-09-30T23:14:46;20.73;;;19.73;;
11037;SDS011;5572;49.540;11.932;2023-09-30T23:17:13;22.50;;;21.30;;
11037;SDS011;5572;49.540;11.932;2023-09-30T23:19:39;22.77;;;21.57;;
11037;SDS011;5572;49.540;11.932;2023-09-30T23:22:06;21.43;;;20.40;;
11037;SDS011;5572;49.540;11.932;2023-09-30T23:24:38;21.43;;;20.33;;
11037;SDS011;5572;49.540;11.932;2023-09-30T23:27:05;21.40;;;20.30;;
11037;SDS011;5572;49.540;11.932;2023-09-30T23:29:33;20.70;;;19.63;;
11037;SDS011;5572;49.540;11.932;2023-09-30T23:32:03;22.03;;;20.93;;
11037;SDS011;5572;49.540;11.932;2023-09-30T23:34:30;22.43;;;21.23;;
11037;SDS011;5572;49.540;11.932;2023-09-30T23:36:57;20.60;;;19.60;;
11037;SDS011;5572;49.540;11.932;2023-09-30T23:39:25;21.43;;;20.33;;
11037;SDS011;5572;49.540;11.932;2023-09-30T23:41:52;21.90;;;20.80;;
11037;SDS011;5572;49.540;11.932;2023-09-30T23:44:19;22.53;;;21.33;;
11037;SDS011;5572;49.540;11.932;2023-09-30T23:46:46;21.43;;;20.33;;
11037;SDS011;5572;49.540;11.932;2023-09-30T23:49:16;22.03;;;20.93;;
11037;SDS011;5572;49.540;11.932;2023-09-30T23:51:50;22.83;;;21.63;;
11037;SDS011;5572;49.540;11.932;2023-09-30T23:54:19;23.00;;;21.80;;
11037;SDS011;5572;49.540;11.932;2023-09-30T23:56:45;23.97;;;22.13;;
11037;SDS011;5572;49.540;11.932;2023-09-30T23:59:12;21.73;;;20.63;;
